Time,TemperatureF,DewpointF,PressureIn,WindDirection,WindDirectionDegrees,WindSpeedMPH,WindSpeedGustMPH,Humidity,HourlyPrecipIn,Conditions,Clouds,dailyrainin,SolarRadiationWatts/m^2,SoftwareType,DateUTC
2013-03-08 00:07:00,50.4,45.0,29.68,North,360,0.0,0.0,83,0.01,,,0.01,0,weatherlink.com 1.10,2013-03-07 23:07:00,
2013-03-08 00:22:00,50.0,45.0,29.67,North,360,0.0,0.0,83,0.01,,,0.01,0,weatherlink.com 1.10,2013-03-07 23:22:00,
2013-03-08 00:37:00,49.4,45.0,29.68,SW,229,0.0,0.0,84,0.01,,,0.01,0,weatherlink.com 1.10,2013-03-07 23:37:00,
2013-03-08 00:52:00,48.9,44.0,29.67,North,360,0.0,0.0,84,0.01,,,0.00,0,weatherlink.com 1.10,2013-03-07 23:52:00,
2013-03-08 01:07:00,48.3,45.0,29.68,SW,229,0.0,0.0,89,0.00,,,0.00,0,weatherlink.com 1.10,2013-03-08 00:07:00,
2013-03-08 01:22:00,47.8,44.0,29.68,SW,229,0.0,0.0,86,0.00,,,0.00,0,weatherlink.com 1.10,2013-03-08 00:22:00,
2013-03-08 01:37:00,47.3,43.0,29.67,SW,227,0.0,1.0,86,0.00,,,0.00,0,weatherlink.com 1.10,2013-03-08 00:37:00,
2013-03-08 01:52:00,47.0,43.0,29.67,SW,227,0.0,0.0,87,0.00,,,0.00,0,weatherlink.com 1.10,2013-03-08 00:52:00,
2013-03-08 02:07:00,46.6,43.0,29.67,SW,228,0.0,0.0,87,0.00,,,0.00,0,weatherlink.com 1.10,2013-03-08 01:07:00,
2013-03-08 02:22:00,46.5,44.0,29.66,SW,227,0.0,2.0,89,0.00,,,0.00,0,weatherlink.com 1.10,2013-03-08 01:22:00,
2013-03-08 02:37:00,46.8,44.0,29.66,North,360,0.0,1.0,89,0.00,,,0.00,0,weatherlink.com 1.10,2013-03-08 01:37:00,
2013-03-08 02:52:00,47.1,44.0,29.66,SW,229,0.0,1.0,90,0.00,,,0.00,0,weatherlink.com 1.10,2013-03-08 01:52:00,
2013-03-08 03:07:00,47.4,45.0,29.66,North,360,0.0,0.0,90,0.00,,,0.00,0,weatherlink.com 1.10,2013-03-08 02:07:00,
2013-03-08 03:22:00,47.4,45.0,29.66,SW,228,0.0,0.0,90,0.00,,,0.00,0,weatherlink.com 1.10,2013-03-08 02:22:00,
2013-03-08 03:37:00,47.4,45.0,29.65,SW,227,0.0,0.0,90,0.00,,,0.00,0,weatherlink.com 1.10,2013-03-08 02:37:00,
2013-03-08 03:52:00,47.6,45.0,29.65,SW,229,0.0,2.0,90,0.00,,,0.00,0,weatherlink.com 1.10,2013-03-08 02:52:00,
2013-03-08 04:07:00,47.7,45.0,29.65,SW,229,0.0,0.0,90,0.00,,,0.00,0,weatherlink.com 1.10,2013-03-08 03:07:00,
2013-03-08 04:22:00,47.7,45.0,29.65,SW,229,0.0,0.0,91,0.00,,,0.00,0,weatherlink.com 1.10,2013-03-08 03:22:00,
2013-03-08 04:37:00,47.7,45.0,29.65,SW,229,0.0,0.0,90,0.00,,,0.00,0,weatherlink.com 1.10,2013-03-08 03:37:00,
2013-03-08 04:52:00,47.8,45.0,29.65,SW,229,0.0,0.0,90,0.00,,,0.00,0,weatherlink.com 1.10,2013-03-08 03:52:00,
2013-03-08 05:07:00,47.8,45.0,29.65,North,360,0.0,0.0,90,0.00,,,0.00,0,weatherlink.com 1.10,2013-03-08 04:07:00,
2013-03-08 05:22:00,47.8,45.0,29.65,SW,232,0.0,0.0,91,0.00,,,0.00,0,weatherlink.com 1.10,2013-03-08 04:22:00,
2013-03-08 05:37:00,47.8,45.0,29.65,SW,229,0.0,0.0,91,0.00,,,0.00,0,weatherlink.com 1.10,2013-03-08 04:37:00,
2013-03-08 05:52:00,47.8,45.0,29.65,SW,227,0.0,0.0,91,0.00,,,0.00,0,weatherlink.com 1.10,2013-03-08 04:52:00,
2013-03-08 06:07:00,47.8,45.0,29.65,SW,227,0.0,0.0,91,0.00,,,0.00,0,weatherlink.com 1.10,2013-03-08 05:07:00,
2013-03-08 06:22:00,47.8,45.0,29.65,SW,228,0.0,0.0,91,0.00,,,0.00,0,weatherlink.com 1.10,2013-03-08 05:22:00,
2013-03-08 06:37:00,47.8,45.0,29.65,SW,229,0.0,0.0,91,0.00,,,0.00,0,weatherlink.com 1.10,2013-03-08 05:37:00,
2013-03-08 06:52:00,47.9,46.0,29.65,SW,227,0.0,1.0,91,0.00,,,0.00,9,weatherlink.com 1.10,2013-03-08 05:52:00,
2013-03-08 07:07:00,47.9,46.0,29.66,SW,229,0.0,1.0,91,0.00,,,0.00,11,weatherlink.com 1.10,2013-03-08 06:07:00,
2013-03-08 07:22:00,48.1,46.0,29.66,North,360,0.0,1.0,91,0.00,,,0.00,16,weatherlink.com 1.10,2013-03-08 06:22:00,
2013-03-08 07:37:00,48.2,46.0,29.66,SW,236,0.0,1.0,91,0.00,,,0.00,18,weatherlink.com 1.10,2013-03-08 06:37:00,
2013-03-08 07:52:00,48.3,46.0,29.66,North,9,2.0,3.0,91,0.00,,,0.00,25,weatherlink.com 1.10,2013-03-08 06:52:00,
2013-03-08 08:07:00,48.3,46.0,29.66,NNE,13,2.0,4.0,90,0.00,,,0.00,35,weatherlink.com 1.10,2013-03-08 07:07:00,
2013-03-08 08:23:00,48.3,46.0,29.66,NNE,25,0.0,4.0,90,0.00,,,0.00,40,weatherlink.com 1.10,2013-03-08 07:23:00,
2013-03-08 08:52:00,48.6,46.0,29.66,NNE,20,1.0,3.0,90,0.00,,,0.00,54,weatherlink.com 1.10,2013-03-08 07:52:00,
2013-03-08 09:07:00,48.9,46.0,29.66,NNE,20,0.0,1.0,90,0.00,,,0.00,60,weatherlink.com 1.10,2013-03-08 08:07:00,
2013-03-08 09:23:00,49.2,47.0,29.66,NNE,20,0.0,3.0,90,0.00,,,0.00,72,weatherlink.com 1.10,2013-03-08 08:23:00,
2013-03-08 09:53:00,50.1,47.0,29.66,North,360,3.0,3.0,89,0.00,,,0.00,91,weatherlink.com 1.10,2013-03-08 08:53:00,
2013-03-08 10:08:00,50.7,47.0,29.66,NNW,342,3.0,4.0,88,0.00,,,0.00,79,weatherlink.com 1.10,2013-03-08 09:08:00,
2013-03-08 10:23:00,51.1,47.0,29.66,NNW,342,0.0,2.0,87,0.00,,,0.00,156,weatherlink.com 1.10,2013-03-08 09:23:00,
2013-03-08 10:38:00,51.6,48.0,29.66,NNW,345,0.0,3.0,86,0.00,,,0.00,125,weatherlink.com 1.10,2013-03-08 09:38:00,
2013-03-08 11:08:00,52.4,48.0,29.66,North,355,0.0,1.0,84,0.00,,,0.00,236,weatherlink.com 1.10,2013-03-08 10:08:00,
2013-03-08 11:38:00,54.6,48.0,29.66,North,360,0.0,2.0,79,0.00,,,0.00,183,weatherlink.com 1.10,2013-03-08 10:38:00,
2013-03-08 11:53:00,54.5,48.0,29.65,NNW,346,0.0,4.0,79,0.00,,,0.00,171,weatherlink.com 1.10,2013-03-08 10:53:00,
2013-03-08 13:08:00,59.1,50.0,29.63,North,5,3.0,6.0,71,0.00,,,0.00,316,weatherlink.com 1.10,2013-03-08 12:08:00,
2013-03-08 13:23:00,58.8,50.0,29.63,North,355,2.0,3.0,72,0.00,,,0.00,304,weatherlink.com 1.10,2013-03-08 12:23:00,
2013-03-08 13:38:00,59.5,49.0,29.62,North,350,3.0,6.0,69,0.00,,,0.00,283,weatherlink.com 1.10,2013-03-08 12:38:00,
2013-03-08 13:53:00,60.5,50.0,29.63,North,9,0.0,6.0,69,0.00,,,0.00,626,weatherlink.com 1.10,2013-03-08 12:53:00,
2013-03-08 14:08:00,59.9,50.0,29.62,NNE,30,0.0,5.0,70,0.00,,,0.00,151,weatherlink.com 1.10,2013-03-08 13:08:00,
2013-03-08 14:23:00,59.5,50.0,29.62,NNE,15,1.0,5.0,70,0.00,,,0.00,148,weatherlink.com 1.10,2013-03-08 13:23:00,
2013-03-08 14:38:00,59.1,50.0,29.62,North,11,0.0,7.0,71,0.00,,,0.00,135,weatherlink.com 1.10,2013-03-08 13:38:00,
2013-03-08 14:53:00,58.6,50.0,29.62,NNW,342,1.0,6.0,72,0.00,,,0.00,171,weatherlink.com 1.10,2013-03-08 13:53:00,
2013-03-08 15:08:00,58.7,50.0,29.61,NNW,343,1.0,3.0,73,0.00,,,0.00,104,weatherlink.com 1.10,2013-03-08 14:08:00,
2013-03-08 15:23:00,57.9,50.0,29.61,North,5,0.0,4.0,74,0.00,,,0.00,120,weatherlink.com 1.10,2013-03-08 14:23:00,
2013-03-08 15:38:00,57.8,50.0,29.61,North,360,2.0,5.0,75,0.00,,,0.00,158,weatherlink.com 1.10,2013-03-08 14:38:00,
2013-03-08 15:53:00,57.8,50.0,29.62,North,360,0.0,5.0,75,0.00,,,0.00,77,weatherlink.com 1.10,2013-03-08 14:53:00,
2013-03-08 16:08:00,57.5,50.0,29.61,NNE,12,2.0,4.0,76,0.00,,,0.00,69,weatherlink.com 1.10,2013-03-08 15:08:00,
2013-03-08 16:23:00,57.1,50.0,29.61,North,355,0.0,4.0,77,0.00,,,0.00,33,weatherlink.com 1.10,2013-03-08 15:23:00,
2013-03-08 16:39:00,56.2,50.0,29.61,North,360,1.0,5.0,79,0.00,,,0.00,19,weatherlink.com 1.10,2013-03-08 15:39:00,
2013-03-08 16:53:00,55.5,49.0,29.61,NNE,17,0.0,3.0,80,0.00,,,0.00,14,weatherlink.com 1.10,2013-03-08 15:53:00,
2013-03-08 17:08:00,55.1,49.0,29.61,WNW,290,0.0,3.0,81,0.00,,,0.00,18,weatherlink.com 1.10,2013-03-08 16:08:00,
2013-03-08 17:23:00,54.9,50.0,29.61,North,360,0.0,4.0,82,0.00,,,0.00,26,weatherlink.com 1.10,2013-03-08 16:23:00,
2013-03-08 17:38:00,54.3,50.0,29.61,NW,321,0.0,3.0,84,0.00,,,0.00,7,weatherlink.com 1.10,2013-03-08 16:38:00,
2013-03-08 17:54:00,53.9,50.0,29.61,NW,325,0.0,1.0,86,0.01,,,0.01,0,weatherlink.com 1.10,2013-03-08 16:54:00,
2013-03-08 18:09:00,53.4,49.0,29.62,NW,321,0.0,2.0,86,0.01,,,0.01,0,weatherlink.com 1.10,2013-03-08 17:09:00,
2013-03-08 18:24:00,53.3,50.0,29.62,NW,321,1.0,3.0,87,0.01,,,0.01,0,weatherlink.com 1.10,2013-03-08 17:24:00,
2013-03-08 18:39:00,53.1,49.0,29.62,NNW,348,0.0,3.0,86,0.00,,,0.01,0,weatherlink.com 1.10,2013-03-08 17:39:00,
2013-03-08 19:08:00,52.1,48.0,29.62,North,360,2.0,2.0,87,0.00,,,0.01,0,weatherlink.com 1.10,2013-03-08 18:08:00,
2013-03-08 19:39:00,51.7,48.0,29.61,North,9,0.0,3.0,87,0.00,,,0.01,0,weatherlink.com 1.10,2013-03-08 18:39:00,
2013-03-08 19:54:00,51.6,48.0,29.61,NNW,327,0.0,3.0,88,0.00,,,0.01,0,weatherlink.com 1.10,2013-03-08 18:54:00,
2013-03-08 20:09:00,51.5,48.0,29.61,NW,326,0.0,3.0,88,0.00,,,0.01,0,weatherlink.com 1.10,2013-03-08 19:09:00,
2013-03-08 20:24:00,51.4,48.0,29.61,NW,325,0.0,2.0,88,0.00,,,0.01,0,weatherlink.com 1.10,2013-03-08 19:24:00,
2013-03-08 20:39:00,51.2,48.0,29.61,North,360,0.0,1.0,88,0.00,,,0.01,0,weatherlink.com 1.10,2013-03-08 19:39:00,
2013-03-08 21:09:00,51.3,48.0,29.61,North,360,0.0,1.0,89,0.00,,,0.01,0,weatherlink.com 1.10,2013-03-08 20:09:00,
2013-03-08 21:24:00,51.4,48.0,29.61,NW,326,0.0,0.0,89,0.00,,,0.01,0,weatherlink.com 1.10,2013-03-08 20:24:00,
2013-03-08 21:39:00,51.5,48.0,29.61,North,360,0.0,0.0,89,0.00,,,0.01,0,weatherlink.com 1.10,2013-03-08 20:39:00,
2013-03-08 21:54:00,51.5,48.0,29.61,North,360,0.0,1.0,89,0.00,,,0.01,0,weatherlink.com 1.10,2013-03-08 20:54:00,
2013-03-08 22:09:00,51.5,48.0,29.61,North,360,0.0,1.0,89,0.00,,,0.01,0,weatherlink.com 1.10,2013-03-08 21:09:00,
2013-03-08 22:24:00,51.5,48.0,29.61,NW,326,0.0,1.0,89,0.00,,,0.01,0,weatherlink.com 1.10,2013-03-08 21:24:00,
2013-03-08 22:39:00,51.4,48.0,29.61,NW,326,0.0,1.0,89,0.00,,,0.01,0,weatherlink.com 1.10,2013-03-08 21:39:00,
2013-03-08 22:54:00,51.3,48.0,29.61,NNW,327,0.0,1.0,89,0.00,,,0.01,0,weatherlink.com 1.10,2013-03-08 21:54:00,
2013-03-08 23:09:00,51.3,49.0,29.61,NW,326,2.0,4.0,90,0.00,,,0.01,0,weatherlink.com 1.10,2013-03-08 22:09:00,
2013-03-08 23:24:00,51.3,49.0,29.61,NW,326,0.0,1.0,90,0.00,,,0.01,0,weatherlink.com 1.10,2013-03-08 22:24:00,
2013-03-08 23:39:00,51.3,49.0,29.60,NW,326,0.0,1.0,90,0.00,,,0.01,0,weatherlink.com 1.10,2013-03-08 22:39:00,
2013-03-08 23:54:00,51.3,49.0,29.60,NW,324,0.0,1.0,90,0.00,,,0.01,0,weatherlink.com 1.10,2013-03-08 22:54:00,